CYVM/YVM METAR and TAF weather

Enter ICAO airport designator
Station Type Date Time Source
CYVM METAR 2019/10/18 06:17 UTC NOAA

CYVM 180617Z AUTO 00000KT 6SM -SN BKN042 OVC070 M00/M00 A2971 RMK SLP063


Station Type Date Time Source
CYVM Decoded METAR 2019/10/18 06:17 UTC NOAA

Broughton Island Airport, Canada (CYVM) 67-33N 064-02W
Oct 18, 2019 - 02:17 AM EDT / 2019.10.18 0617 UTC
Wind: Calm:0
Visibility: 6 mile(s):0
Sky conditions: overcast
Weather: light snow
Temperature: 32 F (0 C)
Dew Point: 32 F (0 C)
Relative Humidity: 100%
Pressure (altimeter): 29.71 in. Hg (1006 hPa)
ob: CYVM 180617Z AUTO 00000KT 6SM -SN BKN042 OVC070 M00/M00 A2971 RMK SLP063
cycle: 6

Station Type Date Time Source
CYVM TAF 2019/10/18 01:39 UTC NOAA

TAF CYVM 180038Z 1801/1813 VRB03KT P6SM -RA OVC040
TEMPO 1801/1804 1SM -SN -FZDZ BR VV012
FM180400 VRB03KT P6SM -SN OVC020
TEMPO 1804/1813 1SM -SN BR VV005
RMK FCST BASED ON AUTO OBS. NXT FCST BY 180700Z

Example: see airport list